Time;durP1;ratioP1;P1;durP2;ratioP2;P2;SDS_P1;SDS_P2;PMS_P1;PMS_P2;Temp;Humidity;BMP_temperature;BMP_pressure;BME280_temperature;BME280_humidity;BME280_pressure;Samples;Min_cycle;Max_cycle;Signal;HPM_P1;HPM_P2
2023/03/05 00:01:07;;;;;;;34.20;15.73;;;3.80;99.90;;;;;;4985397;28;20042;-72
2023/03/05 00:03:33;;;;;;;33.83;16.13;;;3.80;99.90;;;;;;4984807;28;20269;-71
2023/03/05 00:05:59;;;;;;;36.08;16.02;;;3.90;99.90;;;;;;4985514;28;20069;-71
2023/03/05 00:08:28;;;;;;;34.67;16.15;;;3.90;99.90;;;;;;4985061;28;20027;-70
2023/03/05 00:11:06;;;;;;;39.53;16.92;;;3.90;99.90;;;;;;4985228;28;20058;-72
2023/03/05 00:13:32;;;;;;;36.38;15.63;;;3.90;99.90;;;;;;4967837;28;20049;-70
2023/03/05 00:15:58;;;;;;;38.25;15.70;;;3.90;99.90;;;;;;4985628;28;20103;-72
2023/03/05 00:18:24;;;;;;;36.05;16.08;;;4.00;99.90;;;;;;4985011;28;20313;-72
2023/03/05 00:20:50;;;;;;;34.20;15.15;;;4.00;99.90;;;;;;4968001;28;20313;-73
2023/03/05 00:23:15;;;;;;;31.83;16.17;;;4.00;99.90;;;;;;4986726;28;20062;-72
2023/03/05 00:25:41;;;;;;;31.73;15.38;;;4.00;99.90;;;;;;4988458;28;20039;-71
2023/03/05 00:28:07;;;;;;;31.55;15.45;;;4.00;99.90;;;;;;4980247;28;20206;-72
2023/03/05 00:30:34;;;;;;;37.00;16.23;;;3.90;99.90;;;;;;4983232;28;20053;-72
2023/03/05 06:03:20;;;;;;;31.30;13.30;;;3.90;99.90;;;;;;5132786;23;20046;-73
2023/03/05 06:05:46;;;;;;;29.83;13.80;;;3.90;99.90;;;;;;5021739;28;20030;-72
2023/03/05 06:08:12;;;;;;;32.92;14.57;;;3.90;99.90;;;;;;5022636;28;20029;-74
2023/03/05 06:10:38;;;;;;;29.40;12.73;;;3.90;99.90;;;;;;5021859;28;20061;-73
2023/03/05 06:13:03;;;;;;;30.13;13.10;;;3.90;99.90;;;;;;5022563;28;20192;-71
2023/03/05 06:15:30;;;;;;;30.20;12.38;;;3.90;99.90;;;;;;5022233;28;20231;-73
2023/03/05 06:17:58;;;;;;;32.80;13.93;;;3.90;99.90;;;;;;5021574;28;20243;-73
2023/03/05 06:20:24;;;;;;;29.38;13.32;;;3.90;99.90;;;;;;5022749;28;20038;-73
2023/03/05 06:22:49;;;;;;;27.63;13.10;;;3.90;99.90;;;;;;5021958;28;20036;-71
2023/03/05 06:25:15;;;;;;;26.88;12.98;;;4.00;99.90;;;;;;5022299;28;20370;-72
2023/03/05 06:27:41;;;;;;;30.60;13.60;;;4.00;99.90;;;;;;5021791;28;20053;-72
2023/03/05 06:30:07;;;;;;;28.13;12.73;;;4.00;99.90;;;;;;5022295;28;20041;-72
2023/03/05 06:32:33;;;;;;;30.05;13.02;;;4.00;99.90;;;;;;5021454;28;20049;-72
2023/03/05 06:34:58;;;;;;;33.63;13.88;;;4.00;99.90;;;;;;5021789;28;20041;-71
2023/03/05 06:37:24;;;;;;;28.38;12.57;;;4.00;99.90;;;;;;5021909;28;20030;-71
2023/03/05 06:39:50;;;;;;;29.50;12.38;;;4.00;99.90;;;;;;5021972;28;20030;-71
2023/03/05 06:42:18;;;;;;;30.75;13.65;;;4.00;99.90;;;;;;5022384;28;20223;-71
2023/03/05 06:44:45;;;;;;;27.52;12.35;;;4.10;99.90;;;;;;5021218;28;20042;-71
2023/03/05 06:47:10;;;;;;;29.65;14.05;;;4.20;99.90;;;;;;5026543;28;20319;-73
2023/03/05 06:49:37;;;;;;;29.58;12.68;;;4.20;99.90;;;;;;5008871;28;20044;-74
2023/03/05 06:52:04;;;;;;;28.15;12.38;;;4.20;99.90;;;;;;5026273;28;20033;-72
2023/03/05 06:54:31;;;;;;;26.85;11.80;;;4.20;99.90;;;;;;5035615;28;20031;-73
2023/03/05 06:56:57;;;;;;;27.38;12.93;;;4.20;99.90;;;;;;5016453;28;20228;-73
2023/03/05 06:59:23;;;;;;;27.35;12.80;;;4.20;99.90;;;;;;5025799;28;20068;-72
2023/03/05 07:01:48;;;;;;;27.80;11.88;;;4.30;99.90;;;;;;5019829;28;20065;-73
2023/03/05 07:04:15;;;;;;;29.05;12.27;;;4.30;99.90;;;;;;5005918;28;20211;-72
2023/03/05 07:06:41;;;;;;;28.52;12.88;;;4.40;99.90;;;;;;5005863;28;20259;-72
2023/03/05 07:09:11;;;;;;;28.30;12.27;;;4.40;99.90;;;;;;5006322;28;20093;-73
2023/03/05 07:11:37;;;;;;;23.95;11.13;;;4.50;99.90;;;;;;5006519;28;20035;-72
2023/03/05 07:14:03;;;;;;;21.63;11.05;;;4.60;99.90;;;;;;5006038;28;20064;-71
2023/03/05 07:16:31;;;;;;;23.58;11.93;;;4.50;99.90;;;;;;5006232;28;20030;-72
2023/03/05 07:18:58;;;;;;;25.58;12.18;;;4.50;99.90;;;;;;5005763;28;20035;-73
2023/03/05 07:21:27;;;;;;;28.75;12.18;;;4.50;99.90;;;;;;5006181;28;20018;-73
2023/03/05 07:23:54;;;;;;;23.08;10.70;;;4.70;99.90;;;;;;5005345;28;20035;-71
2023/03/05 07:26:20;;;;;;;25.58;11.32;;;4.70;99.90;;;;;;5006106;28;20026;-76
2023/03/05 07:28:46;;;;;;;24.88;11.70;;;4.70;99.90;;;;;;5005290;28;20215;-75
2023/03/05 07:31:14;;;;;;;26.75;11.98;;;4.70;99.90;;;;;;4988238;28;20034;-72
2023/03/05 07:33:40;;;;;;;;;;;4.70;99.90;;;;;;5007113;28;20030;-75
2023/03/05 07:36:10;;;;;;;23.77;10.90;;;4.70;99.90;;;;;;4987905;28;19906;-75
2023/03/05 07:38:36;;;;;;;24.40;11.63;;;4.80;99.90;;;;;;5005803;28;20105;-75
2023/03/05 07:41:18;;;;;;;26.75;12.25;;;4.80;99.90;;;;;;4987841;28;20263;-75
2023/03/05 07:43:44;;;;;;;28.38;11.95;;;4.90;99.90;;;;;;5005225;28;20081;-76
2023/03/05 07:46:12;;;;;;;23.17;12.13;;;5.00;99.90;;;;;;5005610;28;20030;-71
2023/03/05 07:48:38;;;;;;;27.07;11.93;;;4.90;99.90;;;;;;4988298;28;20041;-70
2023/03/05 07:51:06;;;;;;;22.38;11.15;;;5.00;99.90;;;;;;4994702;28;20427;-70
2023/03/05 07:53:31;;;;;;;23.83;11.65;;;5.00;99.90;;;;;;4986252;28;20034;-72
2023/03/05 07:55:57;;;;;;;22.15;11.20;;;5.10;99.90;;;;;;5003455;28;20041;-71
2023/03/05 07:58:23;;;;;;;23.98;10.98;;;5.20;99.90;;;;;;5005241;28;20030;-73
2023/03/05 08:00:49;;;;;;;26.17;12.27;;;5.20;99.90;;;;;;5005066;28;20069;-72
2023/03/05 08:03:15;;;;;;;25.15;10.88;;;5.20;99.90;;;;;;5004837;28;20049;-72
2023/03/05 08:05:41;;;;;;;23.70;11.75;;;5.30;99.90;;;;;;5007384;28;20034;-72
2023/03/05 08:08:08;;;;;;;21.42;10.85;;;5.30;99.90;;;;;;5010523;28;20062;-72
2023/03/05 08:10:35;;;;;;;25.92;12.32;;;5.30;99.90;;;;;;5010704;28;20053;-73
2023/03/05 08:13:02;;;;;;;24.55;12.40;;;5.30;99.90;;;;;;5008618;28;20308;-72
2023/03/05 08:15:27;;;;;;;25.55;12.82;;;5.30;99.90;;;;;;5005423;28;20041;-72
2023/03/05 08:17:53;;;;;;;23.83;10.82;;;5.40;99.90;;;;;;5004903;28;20022;-74
2023/03/05 08:20:19;;;;;;;24.40;10.75;;;5.40;99.90;;;;;;5005649;28;20030;-73
2023/03/05 08:22:45;;;;;;;23.95;11.48;;;5.40;99.90;;;;;;5004623;28;20034;-73
2023/03/05 08:25:12;;;;;;;25.90;11.05;;;5.40;99.90;;;;;;4987571;28;20054;-73
2023/03/05 08:27:40;;;;;;;24.70;10.80;;;5.40;99.90;;;;;;5004907;28;20034;-74
2023/03/05 08:30:07;;;;;;;23.40;11.00;;;5.40;99.90;;;;;;5004493;28;20018;-72
2023/03/05 08:32:33;;;;;;;22.60;10.73;;;5.40;99.90;;;;;;4971134;28;20325;-74
2023/03/05 08:35:00;;;;;;;22.20;10.98;;;5.50;99.90;;;;;;5004399;28;20022;-72
2023/03/05 08:37:26;;;;;;;22.70;10.05;;;5.50;99.90;;;;;;5004379;28;20193;-72
2023/03/05 08:39:51;;;;;;;23.35;10.43;;;5.60;99.90;;;;;;5004261;28;20029;-72
2023/03/05 08:42:17;;;;;;;22.70;10.90;;;5.60;99.90;;;;;;4988580;28;20038;-73
2023/03/05 08:44:43;;;;;;;21.65;10.95;;;5.60;99.90;;;;;;4985348;28;20030;-73
2023/03/05 08:47:09;;;;;;;23.10;11.55;;;5.60;99.90;;;;;;4984258;28;20043;-73
2023/03/05 08:49:34;;;;;;;20.35;9.85;;;5.60;99.90;;;;;;4993646;28;20030;-75
2023/03/05 08:52:00;;;;;;;23.65;10.98;;;5.70;99.90;;;;;;5003848;28;20215;-74
2023/03/05 08:54:26;;;;;;;26.58;10.45;;;5.70;99.90;;;;;;5004493;28;20040;-73
2023/03/05 08:56:54;;;;;;;23.00;10.70;;;5.80;99.90;;;;;;5003434;28;20297;-73
2023/03/05 08:59:19;;;;;;;22.27;10.88;;;5.80;99.90;;;;;;5003206;28;20032;-73
2023/03/05 09:01:46;;;;;;;27.08;11.32;;;5.80;99.90;;;;;;5003727;28;20209;-72
2023/03/05 09:04:11;;;;;;;21.60;11.20;;;5.90;99.80;;;;;;5003985;28;20122;-71
2023/03/05 09:06:39;;;;;;;21.35;10.68;;;6.00;99.60;;;;;;4986467;28;20161;-74
2023/03/05 09:09:07;;;;;;;24.40;10.88;;;6.00;99.90;;;;;;5003014;28;20089;-71
2023/03/05 09:11:34;;;;;;;21.08;10.60;;;6.10;99.40;;;;;;5004027;28;20026;-73
2023/03/05 09:14:04;;;;;;;24.17;11.02;;;6.10;99.20;;;;;;5003352;28;20084;-73
2023/03/05 09:16:30;;;;;;;23.75;11.80;;;6.20;99.10;;;;;;5003580;28;20343;-73
2023/03/05 09:18:57;;;;;;;24.45;11.13;;;6.20;98.70;;;;;;5003186;28;20034;-73
2023/03/05 09:21:22;;;;;;;22.45;11.38;;;6.20;98.70;;;;;;5003642;28;20048;-72
2023/03/05 09:23:48;;;;;;;21.08;10.30;;;6.20;98.90;;;;;;5001899;28;20053;-73
2023/03/05 09:26:17;;;;;;;25.48;11.02;;;6.20;98.90;;;;;;5003656;28;20026;-72
2023/03/05 09:28:44;;;;;;;23.15;11.40;;;6.20;98.70;;;;;;5003567;28;20034;-71
2023/03/05 09:31:10;;;;;;;23.25;11.48;;;6.30;98.50;;;;;;5003099;28;20029;-73
2023/03/05 09:33:37;;;;;;;22.30;10.35;;;6.30;98.50;;;;;;4985642;28;20038;-71
2023/03/05 09:36:04;;;;;;;23.40;11.27;;;6.40;98.40;;;;;;4992574;28;20098;-72
2023/03/05 09:38:30;;;;;;;24.63;11.25;;;6.60;97.70;;;;;;4983604;28;20037;-71
2023/03/05 09:41:02;;;;;;;22.67;11.35;;;6.60;97.60;;;;;;5002925;28;20312;-74
2023/03/05 09:43:34;;;;;;;23.38;11.32;;;6.60;97.60;;;;;;5002950;28;20038;-72
2023/03/05 09:46:16;;;;;;;21.83;10.75;;;6.60;97.70;;;;;;5002682;28;20116;-72
2023/03/05 09:49:16;;;;;;;22.85;11.23;;;6.50;97.50;;;;;;5003000;28;20022;-72
2023/03/05 09:51:45;;;;;;;17.70;9.80;;;6.60;97.40;;;;;;4973070;28;20097;-73
2023/03/05 09:54:25;;;;;;;19.27;10.70;;;6.70;97.30;;;;;;5002463;28;20034;-74
2023/03/05 09:56:56;;;;;;;24.63;11.45;;;6.70;97.00;;;;;;4985232;28;20027;-76
2023/03/05 09:59:45;;;;;;;21.58;11.02;;;6.80;96.90;;;;;;4994310;28;20033;-76
2023/03/05 10:02:38;;;;;;;24.00;11.63;;;6.80;96.70;;;;;;4992946;28;20069;-76
2023/03/05 10:05:18;;;;;;;24.42;11.57;;;6.90;96.60;;;;;;4992887;28;20359;-78
2023/03/05 10:07:54;;;;;;;20.25;11.20;;;7.00;96.50;;;;;;4985590;28;20034;-76
2023/03/05 10:10:48;;;;;;;21.33;11.52;;;7.10;96.30;;;;;;5002841;28;20311;-77
2023/03/05 10:13:25;;;;;;;21.83;11.70;;;7.30;95.50;;;;;;4988126;28;20415;-78
2023/03/05 10:16:02;;;;;;;25.80;12.60;;;7.20;95.40;;;;;;5002269;28;20093;-74
2023/03/05 10:18:40;;;;;;;22.35;11.18;;;7.20;94.90;;;;;;5002905;28;20045;-75
2023/03/05 10:21:29;;;;;;;24.80;11.82;;;7.20;95.20;;;;;;5001891;28;20212;-74
2023/03/05 10:24:19;;;;;;;22.90;11.25;;;7.10;95.30;;;;;;5002582;28;20030;-78
2023/03/05 10:27:20;;;;;;;25.83;11.18;;;7.10;95.40;;;;;;4969425;28;20156;-74
2023/03/05 10:30:08;;;;;;;22.13;10.40;;;7.10;95.60;;;;;;4992018;28;20068;-77
2023/03/05 10:32:54;;;;;;;22.20;10.87;;;7.00;95.70;;;;;;5002882;28;20041;-75
2023/03/05 10:35:56;;;;;;;24.10;11.75;;;7.00;95.70;;;;;;5002950;28;20045;-76
2023/03/05 10:38:40;;;;;;;25.23;13.00;;;7.00;95.40;;;;;;4973165;28;20240;-78
2023/03/05 10:41:54;;;;;;;23.83;11.30;;;7.10;95.50;;;;;;5001868;28;20030;-74
2023/03/05 10:44:29;;;;;;;22.60;11.75;;;7.20;95.30;;;;;;4923002;29;20107;-74
2023/03/05 10:46:57;;;;;;;21.02;10.90;;;7.40;95.30;;;;;;4923113;29;20059;-75
2023/03/05 10:49:35;;;;;;;;;;;7.50;94.70;;;;;;4922502;29;20044;-76
2023/03/05 10:52:31;;;;;;;22.75;11.38;;;7.70;94.60;;;;;;4906692;29;20113;-78
2023/03/05 10:54:57;;;;;;;23.70;11.43;;;7.60;94.30;;;;;;4912131;29;20423;-81
2023/03/05 10:57:25;;;;;;;22.45;11.48;;;7.40;94.30;;;;;;4895284;29;20036;-76
2023/03/05 11:00:26;;;;;;;24.00;12.15;;;7.30;94.70;;;;;;4923519;29;20040;-76
2023/03/05 11:03:03;;;;;;;22.00;11.27;;;7.20;95.00;;;;;;4921226;29;20044;-76
2023/03/05 11:05:38;;;;;;;20.83;10.73;;;7.30;94.80;;;;;;4913770;29;20041;-75
2023/03/05 11:08:24;;;;;;;24.30;11.38;;;7.40;95.00;;;;;;4909921;29;20036;-74
2023/03/05 11:11:13;;;;;;;22.25;10.57;;;7.30;94.90;;;;;;4910398;29;20044;-75
2023/03/05 11:13:59;;;;;;;22.45;10.70;;;7.20;95.30;;;;;;4923513;29;20043;-76
2023/03/05 11:16:32;;;;;;;22.45;11.13;;;7.10;95.80;;;;;;4923474;29;20075;-75
2023/03/05 11:19:23;;;;;;;25.08;10.73;;;6.90;96.20;;;;;;4952693;28;20084;-75
2023/03/05 11:22:14;;;;;;;23.13;11.50;;;7.00;96.10;;;;;;5004654;28;20033;-78
2023/03/05 11:24:40;;;;;;;25.23;11.07;;;6.90;96.70;;;;;;4989537;28;20034;-76
2023/03/05 11:27:22;;;;;;;24.13;11.65;;;6.80;96.60;;;;;;5001530;28;20054;-77
2023/03/05 11:29:49;;;;;;;26.70;12.82;;;6.70;96.70;;;;;;4984783;28;20314;-76
2023/03/05 11:32:16;;;;;;;23.27;12.25;;;6.60;96.80;;;;;;5004544;28;20022;-75
2023/03/05 11:34:42;;;;;;;25.88;12.07;;;6.60;97.00;;;;;;5005843;28;20033;-76
2023/03/05 11:37:21;;;;;;;24.63;11.90;;;6.60;96.90;;;;;;5004897;28;20102;-75
2023/03/05 11:39:47;;;;;;;25.23;11.60;;;6.50;96.70;;;;;;5005595;28;20364;-76
2023/03/05 11:42:23;;;;;;;22.75;11.90;;;6.30;96.70;;;;;;5005057;28;20030;-75
2023/03/05 11:44:52;;;;;;;24.20;11.07;;;6.30;96.80;;;;;;5005709;28;20038;-74
2023/03/05 11:47:50;;;;;;;22.60;11.52;;;6.20;96.70;;;;;;4987604;28;20030;-74
2023/03/05 11:50:25;;;;;;;23.30;11.90;;;6.20;96.90;;;;;;5004678;28;20062;-75
2023/03/05 11:52:57;;;;;;;22.70;11.45;;;6.20;96.60;;;;;;5005425;28;20031;-74
2023/03/05 11:55:30;;;;;;;24.23;10.73;;;6.20;96.70;;;;;;5005778;28;20029;-76
2023/03/05 11:58:20;;;;;;;21.15;11.20;;;6.30;96.40;;;;;;4994263;28;20038;-76
2023/03/05 12:00:47;;;;;;;24.98;11.38;;;6.20;96.50;;;;;;5005186;28;20042;-75
2023/03/05 12:03:35;;;;;;;21.70;11.32;;;6.20;96.70;;;;;;5004406;28;20126;-76
2023/03/05 12:06:34;;;;;;;24.00;11.98;;;6.30;96.50;;;;;;5004736;28;20026;-76
2023/03/05 12:09:32;;;;;;;21.48;10.73;;;6.30;96.30;;;;;;5004735;28;20038;-75
2023/03/05 12:12:23;;;;;;;20.60;10.73;;;6.20;95.30;;;;;;4989442;28;20228;-74
2023/03/05 12:15:02;;;;;;;21.40;10.73;;;6.20;95.20;;;;;;4987692;28;20335;-76
2023/03/05 12:17:38;;;;;;;24.50;11.57;;;6.30;95.20;;;;;;5004572;28;20030;-76
2023/03/05 12:20:54;;;;;;;22.58;10.15;;;6.30;95.20;;;;;;5003964;28;20040;-75
2023/03/05 12:23:21;;;;;;;19.00;9.02;;;6.30;94.80;;;;;;4971323;28;20236;-75
2023/03/05 12:25:56;;;;;;;17.85;8.57;;;6.30;94.00;;;;;;4987225;28;20042;-77
2023/03/05 12:28:28;;;;;;;20.15;9.55;;;6.30;93.80;;;;;;4986669;28;20026;-76
2023/03/05 12:30:56;;;;;;;20.13;9.27;;;6.30;93.90;;;;;;5005044;28;20036;-75
2023/03/05 12:33:33;;;;;;;;;;;6.20;94.10;;;;;;5008537;28;20053;-75
2023/03/05 12:36:18;;;;;;;17.70;7.95;;;6.30;93.30;;;;;;5012090;28;19906;-77
2023/03/05 12:38:53;;;;;;;18.00;8.85;;;6.10;93.50;;;;;;5010011;28;20018;-74
2023/03/05 12:41:22;;;;;;;18.77;8.70;;;6.10;93.60;;;;;;5010169;28;20050;-75
2023/03/05 12:44:06;;;;;;;22.05;10.18;;;6.10;93.80;;;;;;5003907;28;20030;-76
2023/03/05 12:46:34;;;;;;;17.52;8.70;;;6.10;93.90;;;;;;5005449;28;20323;-76
2023/03/05 12:49:26;;;;;;;21.92;9.73;;;6.10;93.70;;;;;;5006099;28;20045;-75
2023/03/05 12:51:54;;;;;;;17.33;8.75;;;6.00;94.20;;;;;;5001110;28;20081;-76
2023/03/05 12:54:40;;;;;;;19.92;9.88;;;6.10;94.40;;;;;;5004069;28;20046;-75
2023/03/05 12:57:25;;;;;;;19.77;10.00;;;6.10;94.80;;;;;;5003661;28;20177;-75
2023/03/05 13:00:09;;;;;;;21.10;10.57;;;6.10;94.90;;;;;;5004108;28;20031;-75
2023/03/05 13:02:43;;;;;;;22.73;10.32;;;6.30;94.80;;;;;;5003593;28;20034;-73
2023/03/05 13:05:20;;;;;;;23.98;9.90;;;6.40;94.80;;;;;;5003367;28;20320;-73
2023/03/05 13:07:47;;;;;;;21.35;10.52;;;6.50;95.00;;;;;;5004145;28;20335;-74
2023/03/05 13:10:25;;;;;;;19.92;10.00;;;6.60;94.70;;;;;;5003276;28;20041;-74
2023/03/05 13:12:54;;;;;;;20.65;10.43;;;6.60;94.50;;;;;;5003669;28;20236;-76
2023/03/05 13:15:23;;;;;;;20.67;10.02;;;6.60;94.20;;;;;;5003076;28;20335;-75
2023/03/05 13:17:56;;;;;;;21.83;9.38;;;6.50;94.10;;;;;;5003775;28;20316;-75
2023/03/05 13:20:32;;;;;;;20.27;10.05;;;6.60;93.80;;;;;;5003083;28;20038;-76
2023/03/05 13:23:17;;;;;;;20.95;9.40;;;6.70;93.70;;;;;;5003620;28;20034;-74
2023/03/05 13:25:44;;;;;;;20.08;9.65;;;6.70;93.70;;;;;;4986135;28;20102;-74
2023/03/05 13:28:15;;;;;;;22.65;9.77;;;6.60;93.90;;;;;;5003316;28;20030;-73
2023/03/05 13:31:23;;;;;;;20.45;9.48;;;6.50;94.60;;;;;;5013034;28;20090;-75
2023/03/05 13:33:56;;;;;;;19.35;10.48;;;6.50;94.40;;;;;;4980211;28;20050;-75
2023/03/05 13:36:24;;;;;;;19.35;9.52;;;6.60;94.50;;;;;;4992825;28;20303;-75
2023/03/05 13:38:51;;;;;;;21.83;10.45;;;6.50;94.50;;;;;;5003471;28;20083;-75
2023/03/05 13:41:26;;;;;;;22.40;10.05;;;6.50;94.50;;;;;;5002806;28;20040;-76
2023/03/05 13:44:00;;;;;;;18.92;10.23;;;6.40;94.50;;;;;;5003192;28;20042;-75
2023/03/05 13:46:37;;;;;;;21.73;9.68;;;6.40;94.30;;;;;;5002676;28;20045;-74
2023/03/05 13:49:33;;;;;;;24.48;10.57;;;6.50;94.20;;;;;;5002736;28;20081;-74
2023/03/05 13:51:59;;;;;;;19.67;9.15;;;6.50;94.30;;;;;;4990228;28;20041;-76
2023/03/05 13:54:26;;;;;;;17.73;9.52;;;6.50;94.30;;;;;;4985175;28;20034;-75
2023/03/05 13:57:04;;;;;;;20.30;9.50;;;6.60;94.30;;;;;;5003120;28;20042;-74
2023/03/05 13:59:33;;;;;;;19.63;9.65;;;6.60;93.80;;;;;;4991615;28;20076;-73
2023/03/05 14:02:17;;;;;;;16.58;8.27;;;6.60;93.70;;;;;;5002824;28;20038;-74
2023/03/05 14:04:45;;;;;;;17.27;8.50;;;6.50;93.70;;;;;;5002869;28;20022;-78
2023/03/05 14:07:19;;;;;;;19.48;8.43;;;6.40;94.00;;;;;;5002715;28;20045;-75
2023/03/05 14:09:48;;;;;;;18.65;8.98;;;6.50;93.90;;;;;;5003005;28;20046;-75
2023/03/05 14:12:31;;;;;;;17.95;9.13;;;6.50;94.00;;;;;;5012159;28;20035;-73
2023/03/05 14:14:58;;;;;;;20.27;8.77;;;6.50;94.00;;;;;;4966234;28;20049;-75
2023/03/05 14:17:40;;;;;;;18.25;9.60;;;6.40;94.20;;;;;;5000390;28;20019;-74
2023/03/05 14:20:12;;;;;;;19.50;8.60;;;6.30;94.30;;;;;;5002313;28;20034;-74
2023/03/05 14:22:39;;;;;;;16.95;8.57;;;6.10;94.50;;;;;;5002412;28;20018;-76
2023/03/05 14:25:32;;;;;;;19.27;9.60;;;6.10;95.00;;;;;;5002715;28;20034;-72
2023/03/05 14:27:59;;;;;;;17.90;9.15;;;6.20;94.80;;;;;;5002480;28;20171;-76
2023/03/05 14:30:25;;;;;;;20.38;9.75;;;6.10;95.30;;;;;;5002289;28;20061;-74
2023/03/05 14:32:54;;;;;;;20.38;9.23;;;6.10;95.20;;;;;;5002669;28;20339;-75
2023/03/05 14:35:23;;;;;;;19.67;9.95;;;6.10;95.20;;;;;;5002031;28;20041;-74
2023/03/05 14:37:50;;;;;;;18.92;9.85;;;6.10;95.50;;;;;;5002696;28;20030;-77
2023/03/05 14:40:31;;;;;;;21.00;9.45;;;6.00;95.70;;;;;;5000611;28;20038;-75
2023/03/05 14:42:59;;;;;;;21.25;10.13;;;5.90;95.90;;;;;;5001175;28;20026;-76
2023/03/05 14:45:30;;;;;;;19.45;9.63;;;5.80;96.00;;;;;;5000321;28;20128;-75
2023/03/05 14:47:57;;;;;;;21.38;10.20;;;5.70;96.10;;;;;;4980211;28;20046;-78
2023/03/05 14:50:32;;;;;;;21.30;9.90;;;5.70;96.30;;;;;;5002176;28;20027;-76
2023/03/05 14:53:02;;;;;;;17.75;8.40;;;5.70;96.40;;;;;;5001042;28;20038;-75
2023/03/05 14:55:30;;;;;;;17.20;9.25;;;5.70;96.10;;;;;;4999296;28;20049;-75
2023/03/05 14:58:09;;;;;;;21.48;8.80;;;5.60;96.20;;;;;;4995142;28;20106;-74
2023/03/05 15:00:35;;;;;;;18.38;8.73;;;5.60;96.50;;;;;;5002456;28;20086;-76
2023/03/05 15:03:01;;;;;;;24.73;10.45;;;5.60;96.70;;;;;;5001434;28;20046;-76
2023/03/05 15:05:27;;;;;;;19.50;9.48;;;5.60;96.80;;;;;;4992872;28;20531;-77
2023/03/05 15:07:53;;;;;;;21.50;10.50;;;5.60;97.00;;;;;;5005786;28;20197;-74
2023/03/05 15:10:21;;;;;;;22.08;10.77;;;5.60;96.80;;;;;;5004263;28;20105;-75
2023/03/05 15:12:49;;;;;;;24.40;11.05;;;5.60;97.00;;;;;;5006060;28;20223;-74
2023/03/05 15:15:16;;;;;;;21.50;10.93;;;5.50;97.10;;;;;;5005095;28;20026;-76
2023/03/05 15:17:50;;;;;;;22.02;10.98;;;5.50;97.10;;;;;;4979371;28;20034;-80
2023/03/05 15:20:21;;;;;;;23.10;11.20;;;5.50;97.20;;;;;;4965131;28;20035;-75
2023/03/05 15:22:47;;;;;;;24.75;10.80;;;5.50;97.20;;;;;;4981123;28;20039;-77
2023/03/05 15:25:13;;;;;;;23.63;11.55;;;5.40;97.50;;;;;;4980696;28;20097;-76
2023/03/05 15:27:39;;;;;;;24.73;11.43;;;5.40;97.60;;;;;;4979429;28;20053;-76
2023/03/05 15:30:07;;;;;;;23.10;11.93;;;5.40;97.70;;;;;;4975571;28;20319;-76
2023/03/05 15:32:33;;;;;;;23.00;11.23;;;5.40;97.70;;;;;;4973934;28;20045;-75
2023/03/05 15:34:59;;;;;;;22.13;10.50;;;5.30;97.80;;;;;;4976286;28;20062;-73
2023/03/05 15:37:26;;;;;;;25.08;11.40;;;5.30;97.90;;;;;;4980841;28;20046;-75
2023/03/05 15:39:52;;;;;;;21.50;10.18;;;5.30;97.80;;;;;;4977934;28;20047;-75
2023/03/05 15:42:18;;;;;;;20.60;10.85;;;5.30;98.00;;;;;;4978780;28;20131;-74
2023/03/05 15:44:43;;;;;;;22.35;10.52;;;5.20;98.00;;;;;;4981798;28;20022;-75
2023/03/05 15:47:10;;;;;;;24.65;10.73;;;5.20;98.10;;;;;;4982665;28;20073;-75
2023/03/05 15:49:35;;;;;;;24.38;11.52;;;5.10;98.10;;;;;;4965517;28;20042;-75
2023/03/05 15:52:01;;;;;;;21.58;11.05;;;5.10;98.10;;;;;;5000699;28;20030;-76
2023/03/05 15:54:27;;;;;;;26.90;12.63;;;5.10;98.20;;;;;;4997448;28;20179;-74
2023/03/05 15:56:53;;;;;;;24.65;11.50;;;5.10;98.20;;;;;;4995586;28;20038;-73
2023/03/05 15:59:19;;;;;;;21.73;10.30;;;5.10;98.40;;;;;;5004164;28;20026;-76
2023/03/05 16:01:50;;;;;;;24.05;10.95;;;5.00;98.60;;;;;;5003000;28;20026;-76
2023/03/05 16:04:17;;;;;;;21.40;10.75;;;5.00;98.60;;;;;;5002130;28;20042;-74
2023/03/05 16:06:48;;;;;;;22.50;11.13;;;5.00;98.10;;;;;;4999069;28;20039;-74
2023/03/05 16:09:16;;;;;;;26.10;11.38;;;5.00;98.10;;;;;;4991129;28;20280;-75
2023/03/05 16:11:46;;;;;;;22.20;10.73;;;5.00;98.20;;;;;;4994178;28;20323;-73
2023/03/05 16:14:16;;;;;;;20.00;9.88;;;5.00;98.30;;;;;;4990969;28;20090;-75
2023/03/05 16:16:42;;;;;;;20.92;9.48;;;5.00;98.10;;;;;;5005242;28;20053;-76
2023/03/05 16:19:09;;;;;;;22.77;10.02;;;4.90;98.20;;;;;;5003476;28;20311;-76
2023/03/05 16:21:35;;;;;;;21.88;10.85;;;4.90;97.60;;;;;;5001128;28;20164;-75
2023/03/05 16:24:01;;;;;;;21.63;9.60;;;4.90;97.70;;;;;;4999617;28;20034;-77
2023/03/05 16:26:27;;;;;;;18.65;9.18;;;4.90;97.40;;;;;;5001756;28;20205;-74
2023/03/05 16:28:53;;;;;;;22.25;9.98;;;4.90;97.20;;;;;;4986838;28;20022;-76
2023/03/05 16:31:19;;;;;;;17.90;8.73;;;4.90;97.20;;;;;;5004594;28;20037;-75
2023/03/05 16:33:45;;;;;;;17.45;9.45;;;4.90;96.80;;;;;;5004511;28;20108;-75
2023/03/05 16:36:37;;;;;;;18.35;9.13;;;4.90;96.90;;;;;;5004582;28;20026;-76
2023/03/05 16:39:04;;;;;;;18.10;8.85;;;4.90;97.20;;;;;;4982702;28;20054;-76
2023/03/05 16:41:30;;;;;;;19.20;9.70;;;4.80;96.50;;;;;;5015228;28;20037;-75
2023/03/05 16:43:55;;;;;;;22.67;8.65;;;4.90;96.80;;;;;;4972239;28;20042;-74
2023/03/05 16:46:26;;;;;;;21.05;8.13;;;4.80;96.80;;;;;;4994383;28;20316;-77
2023/03/05 16:48:53;;;;;;;17.42;8.00;;;4.80;96.70;;;;;;5014352;28;20038;-76
2023/03/05 16:51:19;;;;;;;16.58;8.77;;;4.80;96.50;;;;;;4984771;28;20030;-74
2023/03/05 16:53:44;;;;;;;20.30;8.68;;;4.80;96.60;;;;;;4984756;28;20077;-74
2023/03/05 16:56:10;;;;;;;18.30;8.13;;;4.70;96.50;;;;;;4994088;28;20034;-75
2023/03/05 16:58:39;;;;;;;17.63;8.88;;;4.70;96.30;;;;;;5005541;28;20086;-74
2023/03/05 17:01:14;;;;;;;18.33;8.05;;;4.70;96.60;;;;;;5004272;28;20093;-76
2023/03/05 17:03:42;;;;;;;15.07;7.95;;;4.70;96.60;;;;;;5005429;28;20301;-75
2023/03/05 17:06:19;;;;;;;15.33;7.63;;;4.70;96.50;;;;;;5004471;28;20038;-74
2023/03/05 17:08:46;;;;;;;19.48;8.75;;;4.70;96.20;;;;;;5004129;28;20048;-76
2023/03/05 17:11:12;;;;;;;18.13;8.90;;;4.60;96.50;;;;;;5002839;28;20136;-75
2023/03/05 17:13:39;;;;;;;17.75;8.20;;;4.60;96.70;;;;;;5003793;28;20038;-76
2023/03/05 17:16:06;;;;;;;14.32;8.27;;;4.60;96.70;;;;;;5004044;28;20046;-74
2023/03/05 17:18:31;;;;;;;17.48;8.18;;;4.60;96.80;;;;;;5003277;28;20094;-74
2023/03/05 17:20:58;;;;;;;18.92;7.97;;;4.60;96.90;;;;;;5001668;28;20038;-73
2023/03/05 17:23:24;;;;;;;17.35;8.43;;;4.60;96.80;;;;;;4999276;28;20037;-74
2023/03/05 17:25:50;;;;;;;15.32;8.20;;;4.60;96.90;;;;;;5002376;28;20038;-74
2023/03/05 17:28:16;;;;;;;15.75;8.43;;;4.60;97.10;;;;;;4994467;28;20045;-74
2023/03/05 17:30:42;;;;;;;15.88;7.88;;;4.60;97.00;;;;;;4999608;28;20060;-76
2023/03/05 17:33:11;;;;;;;18.67;8.52;;;4.60;97.00;;;;;;4997935;28;20022;-74
2023/03/05 17:35:37;;;;;;;17.35;8.07;;;4.60;96.90;;;;;;5003187;28;20264;-74
2023/03/05 17:38:06;;;;;;;16.67;7.97;;;4.60;96.80;;;;;;4997376;28;20027;-76
2023/03/05 17:40:33;;;;;;;16.65;8.38;;;4.50;96.90;;;;;;5002768;28;20034;-75
2023/03/05 17:42:59;;;;;;;18.25;8.13;;;4.50;97.20;;;;;;5003506;28;20060;-74
2023/03/05 17:45:25;;;;;;;18.35;8.95;;;4.50;97.20;;;;;;5001922;28;20053;-73
2023/03/05 17:47:52;;;;;;;14.05;7.88;;;4.40;97.40;;;;;;5003518;28;20220;-75
2023/03/05 17:50:20;;;;;;;16.33;8.50;;;4.50;97.40;;;;;;5003022;28;20046;-74
2023/03/05 17:52:46;;;;;;;19.08;9.18;;;4.50;97.60;;;;;;5003252;28;20036;-74
2023/03/05 17:55:14;;;;;;;18.17;9.32;;;4.40;97.60;;;;;;5003139;28;20034;-76
2023/03/05 17:57:41;;;;;;;20.83;9.13;;;4.40;97.70;;;;;;5002395;28;20101;-74
2023/03/05 18:00:27;;;;;;;17.33;9.05;;;4.40;97.80;;;;;;4998513;28;20109;-74
2023/03/05 18:02:53;;;;;;;18.13;9.30;;;4.50;97.80;;;;;;5001701;28;20061;-74
2023/03/05 18:05:22;;;;;;;19.92;9.90;;;4.50;97.90;;;;;;5002983;28;20030;-74
2023/03/05 18:07:48;;;;;;;23.45;10.27;;;4.50;98.00;;;;;;5003133;28;20046;-74
2023/03/05 18:10:20;;;;;;;22.23;10.83;;;4.50;98.40;;;;;;5002863;28;20046;-73
2023/03/05 18:12:46;;;;;;;19.25;10.10;;;4.50;98.20;;;;;;4985936;28;20519;-75
2023/03/05 18:15:14;;;;;;;19.10;9.57;;;4.50;98.30;;;;;;4985486;28;20054;-72
2023/03/05 18:17:40;;;;;;;19.55;9.55;;;4.50;98.30;;;;;;5002387;28;20081;-75
2023/03/05 18:20:18;;;;;;;18.92;9.13;;;4.40;98.30;;;;;;5002605;28;20026;-75
2023/03/05 18:22:44;;;;;;;20.48;9.15;;;4.40;98.40;;;;;;5002188;28;20209;-74
2023/03/05 18:25:10;;;;;;;19.98;9.45;;;4.40;98.50;;;;;;5002770;28;20034;-74
2023/03/05 18:27:35;;;;;;;21.90;10.15;;;4.40;98.60;;;;;;4968753;28;20314;-74
2023/03/05 18:30:01;;;;;;;19.63;9.82;;;4.50;98.50;;;;;;5002831;28;20029;-74
2023/03/05 18:32:28;;;;;;;19.55;9.18;;;4.50;98.50;;;;;;5000981;28;20038;-77